Terminal Aerodrome Forecast
Issued by NWS St Louis, MO

Home | Current Version | Previous Version | Text Only | Print | Product List | Glossary On
Versions: 1 2 3 4 5 6 7 8 9 10 11 12 13 14 15 16 17 18 19 20 21
000
FTUS43 KLSX 072300
TAFCOU
TAF
KCOU 072337Z 0800/0824 24009KT P6SM SCT040 BKN200
     FM080400 23008KT P6SM VCTS BKN050CB
      TEMPO 0805/0807 VRB20G40KT 1SM +TSRA OVC015CB
     FM080700 VRB04KT 5SM -TSRA OVC060CB
     FM081000 28006KT P6SM SCT030 OVC050
     FM081400 33011KT P6SM SCT020=

USA.gov is the U.S. government's official web portal to all federal, state and local government web resources and services.